createdAt,value
2022-09-25T00:01:49.401Z,11.50
2022-09-25T00:04:21.927Z,10.45
2022-09-25T00:06:51.993Z,9.77
2022-09-25T00:09:24.106Z,10.63
2022-09-25T00:11:55.837Z,12.40
2022-09-25T00:14:26.822Z,12.95
2022-09-25T00:16:56.689Z,11.18
2022-09-25T00:19:45.403Z,10.03
2022-09-25T00:22:14.843Z,11.65
2022-09-25T00:24:44.631Z,12.45
2022-09-25T00:27:16.271Z,11.50
2022-09-25T00:29:48.273Z,10.20
2022-09-25T00:32:19.141Z,9.90
2022-09-25T00:34:52.251Z,10.48
2022-09-25T00:37:22.763Z,12.00
2022-09-25T00:39:53.566Z,10.60
2022-09-25T00:42:23.965Z,10.88
2022-09-25T00:44:57.454Z,10.35
2022-09-25T00:47:48.447Z,12.98
2022-09-25T00:50:35.325Z,10.52
2022-09-25T00:53:32.779Z,10.43
2022-09-25T00:56:04.216Z,9.88
2022-09-25T00:58:36.157Z,11.77
2022-09-25T01:01:08.737Z,9.15
2022-09-25T01:03:40.767Z,10.00
2022-09-25T01:06:14.894Z,11.77
2022-09-25T01:08:46.818Z,10.45
2022-09-25T01:11:18.390Z,10.80
2022-09-25T01:13:47.740Z,11.63
2022-09-25T01:16:30.141Z,8.53
2022-09-25T01:21:45.581Z,11.60
2022-09-25T01:24:33.187Z,11.52
2022-09-25T01:27:22.826Z,9.13
2022-09-25T01:30:06.085Z,11.73
2022-09-25T01:33:00.453Z,10.10
2022-09-25T01:35:38.061Z,12.65
2022-09-25T01:38:22.603Z,9.07
2022-09-25T01:41:03.509Z,11.02
2022-09-25T01:43:38.622Z,12.45
2022-09-25T01:46:20.843Z,9.63
2022-09-25T01:48:56.784Z,10.00
2022-09-25T01:51:31.713Z,9.80
2022-09-25T01:54:11.926Z,9.98
2022-09-25T01:56:47.420Z,9.98
2022-09-25T01:59:36.040Z,10.93
2022-09-25T02:02:09.931Z,10.80
2022-09-25T02:04:50.444Z,11.60
2022-09-25T02:07:23.827Z,11.35
2022-09-25T02:09:58.833Z,10.77
2022-09-25T02:12:36.527Z,10.25
2022-09-25T02:15:56.830Z,12.27
2022-09-25T02:18:46.014Z,9.43
2022-09-25T02:21:23.308Z,8.68
2022-09-25T02:24:07.491Z,9.82
2022-09-25T02:26:37.780Z,10.95
2022-09-25T02:29:06.213Z,9.43
2022-09-25T02:31:42.719Z,9.65
2022-09-25T02:34:14.953Z,9.43
2022-09-25T02:36:44.936Z,9.05
2022-09-25T02:39:16.422Z,8.60
2022-09-25T02:42:14.797Z,9.07
2022-09-25T02:45:05.574Z,11.02
2022-09-25T02:47:39.871Z,8.60
2022-09-25T02:50:21.571Z,9.80
2022-09-25T02:52:54.282Z,8.18
2022-09-25T02:55:41.111Z,10.07
2022-09-25T02:58:17.050Z,8.98
2022-09-25T03:00:48.774Z,9.15
2022-09-25T03:03:18.186Z,8.30
2022-09-25T03:05:48.033Z,9.73
2022-09-25T03:08:34.689Z,9.07
2022-09-25T03:11:15.261Z,11.15
2022-09-25T03:13:44.087Z,9.18
2022-09-25T03:16:35.027Z,9.35
2022-09-25T03:19:04.392Z,8.80
2022-09-25T03:21:34.066Z,11.40
2022-09-25T03:24:02.579Z,12.10
2022-09-25T03:26:30.668Z,9.30
2022-09-25T03:29:02.350Z,8.93
2022-09-25T03:31:30.692Z,9.13
2022-09-25T03:33:59.682Z,9.35
2022-09-25T03:36:29.501Z,9.52
2022-09-25T03:39:02.064Z,9.55
2022-09-25T03:41:34.663Z,10.10
2022-09-25T03:44:03.801Z,9.97
2022-09-25T03:46:34.421Z,9.73
2022-09-25T03:49:02.670Z,8.50
2022-09-25T03:51:32.199Z,7.95
2022-09-25T03:54:01.427Z,8.55
2022-09-25T03:56:32.794Z,10.38
2022-09-25T03:59:01.660Z,9.98
2022-09-25T04:01:30.342Z,7.85
2022-09-25T04:04:01.199Z,9.23
2022-09-25T04:06:29.769Z,7.82
2022-09-25T04:08:58.308Z,7.90
2022-09-25T04:11:26.901Z,9.68
2022-09-25T04:13:55.515Z,8.82
2022-09-25T04:16:23.760Z,10.13
2022-09-25T04:18:52.468Z,9.00
2022-09-25T04:21:20.519Z,10.23
2022-09-25T04:24:08.683Z,9.63
2022-09-25T04:26:37.151Z,9.98
2022-09-25T04:29:06.372Z,8.38
2022-09-25T04:31:34.242Z,8.30
2022-09-25T04:34:03.399Z,8.48
2022-09-25T04:36:32.246Z,7.97
2022-09-25T04:39:00.008Z,9.05
2022-09-25T04:41:28.908Z,11.18
2022-09-25T04:43:57.420Z,9.45
2022-09-25T04:46:25.670Z,8.55
2022-09-25T04:48:55.432Z,9.40
2022-09-25T04:51:24.117Z,10.57
2022-09-25T04:53:52.772Z,8.80
2022-09-25T04:56:21.672Z,10.95
2022-09-25T04:58:50.597Z,8.88
2022-09-25T05:01:20.733Z,7.70
2022-09-25T05:03:50.521Z,10.33
2022-09-25T05:06:20.276Z,10.30
2022-09-25T05:08:49.710Z,9.15
2022-09-25T05:11:19.175Z,9.10
2022-09-25T05:13:51.745Z,9.43
2022-09-25T05:16:22.328Z,14.93
2022-09-25T05:18:51.038Z,12.43
2022-09-25T05:21:18.557Z,13.20
2022-09-25T05:23:46.992Z,11.68
2022-09-25T05:26:15.158Z,9.63
2022-09-25T05:28:43.330Z,11.95
2022-09-25T05:31:11.894Z,10.40
2022-09-25T05:33:41.262Z,11.23
2022-09-25T05:36:10.252Z,11.65
2022-09-25T05:38:40.255Z,17.45
2022-09-25T05:41:10.517Z,13.13
2022-09-25T05:43:41.580Z,12.13
2022-09-25T05:46:11.079Z,11.27
2022-09-25T05:48:40.326Z,13.40
2022-09-25T05:51:08.691Z,12.32
2022-09-25T05:53:38.188Z,12.65
2022-09-25T05:56:07.242Z,11.40
2022-09-25T05:58:35.740Z,15.10
2022-09-25T06:01:06.888Z,14.52
2022-09-25T06:03:36.206Z,12.73
2022-09-25T06:06:05.790Z,12.48
2022-09-25T06:08:34.772Z,11.10
2022-09-25T06:11:05.144Z,11.00
2022-09-25T06:13:34.973Z,11.00
2022-09-25T06:16:05.649Z,12.73
2022-09-25T06:18:34.546Z,11.68
2022-09-25T06:21:05.668Z,13.48
2022-09-25T06:23:33.489Z,12.88
2022-09-25T06:26:03.229Z,10.27
2022-09-25T06:28:31.619Z,11.55
2022-09-25T06:31:05.765Z,11.12
2022-09-25T06:33:34.486Z,11.12
2022-09-25T06:36:05.489Z,13.40
2022-09-25T06:38:34.606Z,11.35
2022-09-25T06:41:02.420Z,11.80
2022-09-25T06:43:31.559Z,10.63
2022-09-25T06:46:02.606Z,13.15
2022-09-25T06:48:31.589Z,13.02
2022-09-25T06:51:01.258Z,14.35
2022-09-25T06:53:30.363Z,11.73
2022-09-25T06:56:01.892Z,12.37
2022-09-25T07:00:59.325Z,14.73
2022-09-25T07:03:45.469Z,12.65
2022-09-25T07:06:19.764Z,14.18
2022-09-25T07:08:49.660Z,13.10
2022-09-25T07:11:22.258Z,11.48
2022-09-25T07:13:52.404Z,12.93
2022-09-25T07:16:22.872Z,10.27
2022-09-25T07:18:52.890Z,16.62
2022-09-25T07:21:23.706Z,13.30
2022-09-25T07:23:52.436Z,14.43
2022-09-25T07:26:24.076Z,13.30
2022-09-25T07:29:00.310Z,11.02
2022-09-25T07:31:31.314Z,14.38
2022-09-25T07:34:03.053Z,13.65
2022-09-25T07:36:32.676Z,10.60
2022-09-25T07:39:00.615Z,13.65
2022-09-25T07:41:29.169Z,15.23
2022-09-25T07:44:24.351Z,12.27
2022-09-25T07:46:46.864Z,9.88
2022-09-25T07:49:16.574Z,13.35
2022-09-25T07:51:44.621Z,9.27
2022-09-25T07:54:12.414Z,10.43
2022-09-25T07:56:40.784Z,12.15
2022-09-25T07:59:10.387Z,10.07
2022-09-25T08:01:43.260Z,9.82
2022-09-25T08:04:14.528Z,11.15
2022-09-25T08:06:43.138Z,7.03
2022-09-25T08:09:12.416Z,7.57
2022-09-25T08:11:41.962Z,8.30
2022-09-25T08:14:14.274Z,6.90
2022-09-25T08:16:43.662Z,4.78
2022-09-25T08:19:11.763Z,5.60
2022-09-25T08:21:39.886Z,5.20
2022-09-25T08:24:08.484Z,6.72
2022-09-25T08:26:37.684Z,5.03
2022-09-25T08:29:08.308Z,6.30
2022-09-25T08:31:37.001Z,5.87
2022-09-25T08:34:21.445Z,5.40
2022-09-25T08:36:54.470Z,7.55
2022-09-25T08:39:23.538Z,5.25
2022-09-25T08:41:54.229Z,4.43
2022-09-25T08:44:39.747Z,5.15
2022-09-25T08:47:32.694Z,5.10
2022-09-25T08:50:07.318Z,5.60
2022-09-25T08:52:36.116Z,3.65
2022-09-25T08:55:08.642Z,5.70
2022-09-25T08:57:40.604Z,4.12
2022-09-25T09:00:21.314Z,4.12
2022-09-25T09:02:58.527Z,4.47
2022-09-25T09:05:30.817Z,5.75
2022-09-25T09:08:12.282Z,5.62
2022-09-25T09:10:44.474Z,7.15
2022-09-25T09:16:05.856Z,3.35
2022-09-25T09:18:39.746Z,4.25
2022-09-25T09:21:27.757Z,4.47
2022-09-25T09:24:01.859Z,4.43
2022-09-25T09:27:08.471Z,5.07
2022-09-25T09:29:52.685Z,5.30
2022-09-25T09:32:46.136Z,5.07
2022-09-25T09:35:36.499Z,3.50
2022-09-25T09:38:18.793Z,5.62
2022-09-25T09:43:38.070Z,3.47
2022-09-25T09:46:47.534Z,4.03
2022-09-25T09:49:21.694Z,6.05
2022-09-25T09:52:14.703Z,3.70
2022-09-25T09:54:54.104Z,2.65
2022-09-25T09:57:31.402Z,4.70
2022-09-25T10:00:26.798Z,4.65
2022-09-25T10:03:03.864Z,5.57
2022-09-25T10:05:36.642Z,4.70
2022-09-25T10:08:05.957Z,3.70
2022-09-25T10:10:41.145Z,4.65
2022-09-25T10:13:32.976Z,4.25
2022-09-25T10:16:15.749Z,5.03
2022-09-25T10:18:53.969Z,3.67
2022-09-25T10:21:24.609Z,6.40
2022-09-25T10:23:54.828Z,6.82
2022-09-25T10:26:38.069Z,4.22
2022-09-25T10:29:09.979Z,4.65
2022-09-25T10:31:40.030Z,6.37
2022-09-25T10:34:17.935Z,4.93
2022-09-25T10:36:47.614Z,6.57
2022-09-25T10:39:46.906Z,5.15
2022-09-25T10:42:39.253Z,5.57
2022-09-25T10:45:30.198Z,5.80
2022-09-25T10:48:16.692Z,5.40
2022-09-25T10:50:46.833Z,5.70
2022-09-25T10:53:30.490Z,8.00
2022-09-25T10:56:12.627Z,6.28
2022-09-25T10:58:57.287Z,5.85
2022-09-25T11:01:33.549Z,5.68
2022-09-25T11:04:03.860Z,5.78
2022-09-25T11:06:34.892Z,5.82
2022-09-25T11:09:09.500Z,5.82
2022-09-25T11:11:40.118Z,5.15
2022-09-25T11:14:22.648Z,4.68
2022-09-25T11:16:58.305Z,4.93
2022-09-25T11:19:26.048Z,4.87
2022-09-25T11:22:10.942Z,4.87
2022-09-25T11:25:01.215Z,5.20
2022-09-25T11:30:18.151Z,4.40
2022-09-25T11:33:13.318Z,3.25
2022-09-25T11:35:49.257Z,4.78
2022-09-25T11:39:15.634Z,5.43
2022-09-25T11:41:47.336Z,4.20
2022-09-25T11:44:34.734Z,4.97
2022-09-25T11:47:30.393Z,4.05
2022-09-25T11:49:58.799Z,3.33
2022-09-25T11:53:04.089Z,4.05
2022-09-25T11:55:43.555Z,5.20
2022-09-25T11:58:50.883Z,3.95
2022-09-25T12:01:33.211Z,4.85
2022-09-25T12:04:05.021Z,4.40
2022-09-25T12:07:00.310Z,4.60
2022-09-25T12:10:19.727Z,4.18
2022-09-25T12:13:16.938Z,4.47
2022-09-25T12:15:51.244Z,5.72
2022-09-25T12:19:00.494Z,4.53
2022-09-25T12:21:35.063Z,4.55
2022-09-25T12:24:15.290Z,5.55
2022-09-25T12:27:09.552Z,4.93
2022-09-25T12:30:11.747Z,3.58
2022-09-25T12:33:00.930Z,5.50
2022-09-25T12:36:09.039Z,5.90
2022-09-25T12:38:57.812Z,5.78
2022-09-25T12:41:40.810Z,6.72
2022-09-25T12:44:27.458Z,5.22
2022-09-25T12:47:08.999Z,4.57
2022-09-25T12:49:41.600Z,5.00
2022-09-25T12:52:27.148Z,5.22
2022-09-25T12:55:21.104Z,5.97
2022-09-25T12:57:55.846Z,5.35
2022-09-25T13:00:25.822Z,5.30
2022-09-25T13:03:12.458Z,4.53
2022-09-25T13:06:01.136Z,4.32
2022-09-25T13:08:45.235Z,4.50
2022-09-25T13:11:30.206Z,4.05
2022-09-25T13:13:59.511Z,8.60
2022-09-25T13:16:28.914Z,6.25
2022-09-25T13:19:25.396Z,5.65
2022-09-25T13:22:06.535Z,7.80
2022-09-25T13:24:50.112Z,5.03
2022-09-25T13:27:23.744Z,5.32
2022-09-25T13:29:54.900Z,5.47
2022-09-25T13:32:25.474Z,6.05
2022-09-25T13:35:01.014Z,5.35
2022-09-25T13:37:33.712Z,6.05
2022-09-25T13:40:26.442Z,5.72
2022-09-25T13:43:22.576Z,6.22
2022-09-25T13:46:21.692Z,5.43
2022-09-25T13:48:55.783Z,5.95
2022-09-25T13:51:23.824Z,7.12
2022-09-25T13:54:03.626Z,7.55
2022-09-25T13:56:41.335Z,5.03
2022-09-25T13:59:12.464Z,8.85
2022-09-25T14:01:44.199Z,5.70
2022-09-25T14:04:25.275Z,7.07
2022-09-25T14:09:30.194Z,5.78
2022-09-25T14:12:08.412Z,6.60
2022-09-25T14:14:55.608Z,6.55
2022-09-25T14:17:25.731Z,8.25
2022-09-25T14:19:55.031Z,6.97
2022-09-25T14:22:44.628Z,7.35
2022-09-25T14:25:56.186Z,6.18
2022-09-25T14:28:31.212Z,6.53
2022-09-25T14:31:15.279Z,7.47
2022-09-25T14:34:04.656Z,7.25
2022-09-25T14:36:39.530Z,6.82
2022-09-25T14:39:15.978Z,7.12
2022-09-25T14:42:19.237Z,6.20
2022-09-25T14:45:09.097Z,7.20
2022-09-25T14:47:44.622Z,6.45
2022-09-25T14:50:20.865Z,7.00
2022-09-25T14:52:53.583Z,7.43
2022-09-25T14:55:23.017Z,6.65
2022-09-25T14:57:52.375Z,7.18
2022-09-25T15:00:24.676Z,6.87
2022-09-25T15:02:55.570Z,7.43
2022-09-25T15:05:24.216Z,7.18
2022-09-25T15:07:52.974Z,6.55
2022-09-25T15:10:25.969Z,6.85
2022-09-25T15:12:54.094Z,7.85
2022-09-25T15:15:22.954Z,6.22
2022-09-25T15:17:54.745Z,6.70
2022-09-25T15:20:34.849Z,8.40
2022-09-25T15:23:19.601Z,6.12
2022-09-25T15:25:51.670Z,8.07
2022-09-25T15:28:24.683Z,6.62
2022-09-25T15:30:58.670Z,7.32
2022-09-25T15:33:32.211Z,7.32
2022-09-25T15:36:20.375Z,8.90
2022-09-25T15:39:09.736Z,7.62
2022-09-25T15:41:38.558Z,10.30
2022-09-25T15:44:19.741Z,11.27
2022-09-25T15:46:53.680Z,9.75
2022-09-25T15:49:28.188Z,8.65
2022-09-25T15:52:23.777Z,6.78
2022-09-25T15:54:51.561Z,7.68
2022-09-25T15:57:26.199Z,6.53
2022-09-25T16:00:13.406Z,7.80
2022-09-25T16:03:08.543Z,8.70
2022-09-25T16:05:38.350Z,7.70
2022-09-25T16:08:29.522Z,7.60
2022-09-25T16:11:17.603Z,8.70
2022-09-25T16:13:51.634Z,10.43
2022-09-25T16:16:29.929Z,8.93
2022-09-25T16:19:00.421Z,12.35
2022-09-25T16:21:36.648Z,11.10
2022-09-25T16:24:07.848Z,12.00
2022-09-25T16:29:12.710Z,9.50
2022-09-25T16:31:42.619Z,10.27
2022-09-25T16:34:26.291Z,11.13
2022-09-25T16:36:58.139Z,10.20
2022-09-25T16:39:32.487Z,9.77
2022-09-25T16:42:00.565Z,11.18
2022-09-25T16:44:33.011Z,11.30
2022-09-25T16:47:06.404Z,9.77
2022-09-25T16:49:35.071Z,9.20
2022-09-25T16:52:06.251Z,9.25
2022-09-25T16:54:37.783Z,10.43
2022-09-25T16:57:06.244Z,9.32
2022-09-25T16:59:36.014Z,12.05
2022-09-25T17:02:15.127Z,9.63
2022-09-25T17:04:44.899Z,10.68
2022-09-25T17:07:13.092Z,11.73
2022-09-25T17:09:41.161Z,11.27
2022-09-25T17:12:20.527Z,12.13
2022-09-25T17:14:50.280Z,18.15
2022-09-25T17:17:20.772Z,21.83
2022-09-25T17:19:50.457Z,21.83
2022-09-25T17:22:20.268Z,21.20
2022-09-25T17:24:47.870Z,16.48
2022-09-25T17:27:16.669Z,17.40
2022-09-25T17:32:17.732Z,15.77
2022-09-25T17:34:46.877Z,13.73
2022-09-25T17:37:16.144Z,15.48
2022-09-25T17:39:44.231Z,15.10
2022-09-25T17:42:12.696Z,14.18
2022-09-25T17:44:44.053Z,14.60
2022-09-25T17:47:12.928Z,15.30
2022-09-25T17:49:42.076Z,16.80
2022-09-25T17:52:16.209Z,14.73
2022-09-25T17:54:46.075Z,17.60
2022-09-25T17:57:14.497Z,14.63
2022-09-25T17:59:42.589Z,16.50
2022-09-25T18:02:14.773Z,16.05
2022-09-25T18:04:44.810Z,15.25
2022-09-25T18:07:17.760Z,16.30
2022-09-25T18:09:46.543Z,18.33
2022-09-25T18:12:15.812Z,19.00
2022-09-25T18:14:45.754Z,19.98
2022-09-25T18:17:16.208Z,19.67
2022-09-25T18:20:03.405Z,21.48
2022-09-25T18:22:31.787Z,20.20
2022-09-25T18:25:00.496Z,20.40
2022-09-25T18:27:30.141Z,19.73
2022-09-25T18:29:59.365Z,20.83
2022-09-25T18:32:27.672Z,19.58
2022-09-25T18:34:56.387Z,18.95
2022-09-25T18:37:24.962Z,18.98
2022-09-25T18:39:52.810Z,22.15
2022-09-25T18:42:21.280Z,20.12
2022-09-25T18:44:50.905Z,20.55
2022-09-25T18:47:19.008Z,20.00
2022-09-25T18:49:47.229Z,20.48
2022-09-25T18:52:15.891Z,19.42
2022-09-25T18:54:44.164Z,19.00
2022-09-25T18:57:13.476Z,19.10
2022-09-25T18:59:42.343Z,21.10
2022-09-25T19:02:20.145Z,19.35
2022-09-25T19:04:51.972Z,19.05
2022-09-25T19:07:26.077Z,18.10
2022-09-25T19:09:56.769Z,19.02
2022-09-25T19:12:25.881Z,19.02
2022-09-25T19:14:54.484Z,17.67
2022-09-25T19:17:24.060Z,17.35
2022-09-25T19:19:53.476Z,18.70
2022-09-25T19:22:21.493Z,16.37
2022-09-25T19:24:50.738Z,17.27
2022-09-25T19:27:18.888Z,18.95
2022-09-25T19:29:47.357Z,20.80
2022-09-25T19:32:17.494Z,17.80
2022-09-25T19:34:45.239Z,17.73
2022-09-25T19:37:12.925Z,19.98
2022-09-25T19:39:59.872Z,18.83
2022-09-25T19:42:33.920Z,18.58
2022-09-25T19:45:03.454Z,19.58
2022-09-25T19:47:32.081Z,19.87
2022-09-25T19:50:00.051Z,17.98
2022-09-25T19:52:29.427Z,19.70
2022-09-25T19:54:57.274Z,20.12
2022-09-25T19:57:25.588Z,19.98
2022-09-25T19:59:54.761Z,19.60
2022-09-25T20:02:22.855Z,19.62
2022-09-25T20:04:52.764Z,18.30
2022-09-25T20:07:20.711Z,20.25
2022-09-25T20:09:49.072Z,18.37
2022-09-25T20:12:17.990Z,19.77
2022-09-25T20:14:48.094Z,20.60
2022-09-25T20:17:16.989Z,19.08
2022-09-25T20:19:49.473Z,19.05
2022-09-25T20:22:19.372Z,18.42
2022-09-25T20:24:54.193Z,19.83
2022-09-25T20:27:24.238Z,19.50
2022-09-25T20:29:55.014Z,19.67
2022-09-25T20:32:24.240Z,21.70
2022-09-25T20:34:59.504Z,19.48
2022-09-25T20:37:30.319Z,19.17
2022-09-25T20:40:01.952Z,21.17
2022-09-25T20:42:34.711Z,17.58
2022-09-25T20:45:08.458Z,21.12
2022-09-25T20:47:45.795Z,19.12
2022-09-25T20:50:17.835Z,18.08
2022-09-25T20:52:48.121Z,20.25
2022-09-25T20:55:20.995Z,20.58
2022-09-25T20:57:50.948Z,19.75
2022-09-25T21:00:20.107Z,18.15
2022-09-25T21:02:48.427Z,19.50
2022-09-25T21:05:17.512Z,18.90
2022-09-25T21:07:46.526Z,20.48
2022-09-25T21:10:15.546Z,18.50
2022-09-25T21:12:44.111Z,20.00
2022-09-25T21:15:12.190Z,18.60
2022-09-25T21:17:40.232Z,18.52
2022-09-25T21:20:08.411Z,21.40
2022-09-25T21:22:36.724Z,18.37
2022-09-25T21:25:06.889Z,18.02
2022-09-25T21:27:36.317Z,18.23
2022-09-25T21:30:05.942Z,19.15
2022-09-25T21:32:33.797Z,21.35
2022-09-25T21:35:02.669Z,19.37
2022-09-25T21:37:30.429Z,19.27
2022-09-25T21:39:59.302Z,20.42
2022-09-25T21:42:29.675Z,21.58
2022-09-25T21:44:59.689Z,22.85
2022-09-25T21:47:28.788Z,19.20
2022-09-25T21:49:56.687Z,21.83
2022-09-25T21:52:26.212Z,21.15
2022-09-25T21:54:55.203Z,21.50
2022-09-25T21:57:23.967Z,19.77
2022-09-25T21:59:52.472Z,20.60
2022-09-25T22:02:20.804Z,21.35
2022-09-25T22:04:49.264Z,19.77
2022-09-25T22:07:17.820Z,21.70
2022-09-25T22:09:46.003Z,23.60
2022-09-25T22:12:19.976Z,20.50
2022-09-25T22:14:50.088Z,20.60
2022-09-25T22:17:24.191Z,21.87
2022-09-25T22:19:54.783Z,21.35
2022-09-25T22:22:24.680Z,21.30
2022-09-25T22:24:54.842Z,24.87
2022-09-25T22:27:25.592Z,22.50
2022-09-25T22:29:56.377Z,20.17
2022-09-25T22:32:27.856Z,21.27
2022-09-25T22:34:59.976Z,25.88
2022-09-25T22:37:33.520Z,21.73
2022-09-25T22:40:07.996Z,23.58
2022-09-25T22:45:11.634Z,23.80
2022-09-25T22:47:43.215Z,21.85
2022-09-25T22:50:13.432Z,22.08
2022-09-25T22:52:45.891Z,21.80
2022-09-25T22:55:17.312Z,22.48
2022-09-25T23:00:20.559Z,22.98
2022-09-25T23:02:54.090Z,23.02
2022-09-25T23:05:24.983Z,22.67
2022-09-25T23:07:55.931Z,23.45
2022-09-25T23:10:35.131Z,23.10
2022-09-25T23:13:19.157Z,23.90
2022-09-25T23:15:50.655Z,23.92
2022-09-25T23:18:21.896Z,24.00
2022-09-25T23:20:55.949Z,21.92
2022-09-25T23:23:27.958Z,22.55
2022-09-25T23:26:02.754Z,24.37
2022-09-25T23:28:38.395Z,20.80
2022-09-25T23:31:13.241Z,23.23
2022-09-25T23:33:47.622Z,21.33
2022-09-25T23:36:20.798Z,20.95
2022-09-25T23:38:53.625Z,22.25
2022-09-25T23:41:32.435Z,19.87
2022-09-25T23:44:05.006Z,23.23
2022-09-25T23:46:37.828Z,22.80
2022-09-25T23:49:13.278Z,21.67
2022-09-25T23:51:44.899Z,22.55
2022-09-25T23:54:18.512Z,20.58
2022-09-25T23:56:50.865Z,21.42
